sensor_id;sensor_type;location;lat;lon;timestamp;P1;durP1;ratioP1;P2;durP2;ratioP2
53775;SDS011;44276;49.534;6.378;2023-01-24T00:01:18;8.38;;;5.07;;
53775;SDS011;44276;49.534;6.378;2023-01-24T00:03:47;10.55;;;6.38;;
53775;SDS011;44276;49.534;6.378;2023-01-24T00:06:16;11.65;;;4.38;;
53775;SDS011;44276;49.534;6.378;2023-01-24T00:08:45;7.93;;;4.20;;
53775;SDS011;44276;49.534;6.378;2023-01-24T00:11:13;9.15;;;4.88;;
53775;SDS011;44276;49.534;6.378;2023-01-24T00:13:41;8.93;;;5.95;;
53775;SDS011;44276;49.534;6.378;2023-01-24T00:16:11;11.45;;;6.40;;
53775;SDS011;44276;49.534;6.378;2023-01-24T00:18:43;9.73;;;6.20;;
53775;SDS011;44276;49.534;6.378;2023-01-24T00:21:13;9.20;;;5.28;;
53775;SDS011;44276;49.534;6.378;2023-01-24T00:23:44;8.60;;;4.55;;
53775;SDS011;44276;49.534;6.378;2023-01-24T00:26:14;12.60;;;5.70;;
53775;SDS011;44276;49.534;6.378;2023-01-24T00:28:44;7.57;;;5.03;;
53775;SDS011;44276;49.534;6.378;2023-01-24T00:31:14;10.20;;;5.05;;
53775;SDS011;44276;49.534;6.378;2023-01-24T00:33:44;11.30;;;5.68;;
53775;SDS011;44276;49.534;6.378;2023-01-24T00:36:13;9.40;;;5.15;;
53775;SDS011;44276;49.534;6.378;2023-01-24T00:38:41;9.30;;;4.88;;
53775;SDS011;44276;49.534;6.378;2023-01-24T00:41:09;9.80;;;5.93;;
53775;SDS011;44276;49.534;6.378;2023-01-24T00:43:37;7.50;;;4.93;;
53775;SDS011;44276;49.534;6.378;2023-01-24T00:46:06;10.27;;;6.00;;
53775;SDS011;44276;49.534;6.378;2023-01-24T00:48:35;8.95;;;4.30;;
53775;SDS011;44276;49.534;6.378;2023-01-24T00:51:05;8.23;;;4.57;;
53775;SDS011;44276;49.534;6.378;2023-01-24T00:53:34;8.77;;;4.85;;
53775;SDS011;44276;49.534;6.378;2023-01-24T00:56:02;8.18;;;4.55;;
53775;SDS011;44276;49.534;6.378;2023-01-24T00:58:31;7.65;;;4.63;;
53775;SDS011;44276;49.534;6.378;2023-01-24T01:00:59;10.43;;;5.40;;
53775;SDS011;44276;49.534;6.378;2023-01-24T01:03:29;9.23;;;5.60;;
53775;SDS011;44276;49.534;6.378;2023-01-24T01:05:59;11.98;;;5.13;;
53775;SDS011;44276;49.534;6.378;2023-01-24T01:08:33;10.35;;;6.25;;
53775;SDS011;44276;49.534;6.378;2023-01-24T01:11:01;10.57;;;5.28;;
53775;SDS011;44276;49.534;6.378;2023-01-24T01:13:30;10.73;;;4.85;;
53775;SDS011;44276;49.534;6.378;2023-01-24T01:16:02;9.20;;;4.88;;
53775;SDS011;44276;49.534;6.378;2023-01-24T01:18:33;7.53;;;4.72;;
53775;SDS011;44276;49.534;6.378;2023-01-24T01:21:03;6.38;;;4.45;;
53775;SDS011;44276;49.534;6.378;2023-01-24T01:23:34;12.32;;;6.72;;
53775;SDS011;44276;49.534;6.378;2023-01-24T01:26:03;10.80;;;6.07;;
53775;SDS011;44276;49.534;6.378;2023-01-24T01:28:36;10.88;;;6.05;;
53775;SDS011;44276;49.534;6.378;2023-01-24T01:31:04;9.07;;;3.90;;
53775;SDS011;44276;49.534;6.378;2023-01-24T01:33:34;8.80;;;5.05;;
53775;SDS011;44276;49.534;6.378;2023-01-24T01:36:17;10.45;;;4.45;;
53775;SDS011;44276;49.534;6.378;2023-01-24T01:38:50;9.93;;;4.82;;
53775;SDS011;44276;49.534;6.378;2023-01-24T01:41:19;8.57;;;5.15;;
53775;SDS011;44276;49.534;6.378;2023-01-24T01:43:48;8.38;;;4.13;;
53775;SDS011;44276;49.534;6.378;2023-01-24T01:46:34;8.07;;;4.80;;
53775;SDS011;44276;49.534;6.378;2023-01-24T01:49:12;9.52;;;4.57;;
53775;SDS011;44276;49.534;6.378;2023-01-24T01:54:19;8.65;;;4.13;;
53775;SDS011;44276;49.534;6.378;2023-01-24T01:56:53;6.97;;;4.18;;
53775;SDS011;44276;49.534;6.378;2023-01-24T01:59:27;9.60;;;4.55;;
53775;SDS011;44276;49.534;6.378;2023-01-24T02:02:02;9.02;;;4.47;;
53775;SDS011;44276;49.534;6.378;2023-01-24T02:04:35;7.70;;;4.07;;
53775;SDS011;44276;49.534;6.378;2023-01-24T02:07:08;11.60;;;6.55;;
53775;SDS011;44276;49.534;6.378;2023-01-24T02:09:44;9.30;;;4.72;;
53775;SDS011;44276;49.534;6.378;2023-01-24T02:12:18;10.32;;;4.80;;
53775;SDS011;44276;49.534;6.378;2023-01-24T02:14:50;11.02;;;5.00;;
53775;SDS011;44276;49.534;6.378;2023-01-24T02:17:39;9.15;;;5.28;;
53775;SDS011;44276;49.534;6.378;2023-01-24T02:20:12;9.43;;;5.03;;
53775;SDS011;44276;49.534;6.378;2023-01-24T02:23:08;7.75;;;5.05;;
53775;SDS011;44276;49.534;6.378;2023-01-24T02:25:59;11.23;;;5.07;;
53775;SDS011;44276;49.534;6.378;2023-01-24T02:28:32;7.82;;;4.20;;
53775;SDS011;44276;49.534;6.378;2023-01-24T02:31:02;10.20;;;4.38;;
53775;SDS011;44276;49.534;6.378;2023-01-24T02:33:32;7.78;;;3.70;;
53775;SDS011;44276;49.534;6.378;2023-01-24T02:36:15;9.45;;;5.82;;
53775;SDS011;44276;49.534;6.378;2023-01-24T02:38:53;11.40;;;5.30;;
53775;SDS011;44276;49.534;6.378;2023-01-24T02:41:29;8.55;;;5.00;;
53775;SDS011;44276;49.534;6.378;2023-01-24T02:44:07;9.73;;;5.80;;
53775;SDS011;44276;49.534;6.378;2023-01-24T02:46:44;8.98;;;5.10;;
53775;SDS011;44276;49.534;6.378;2023-01-24T02:49:13;9.95;;;5.43;;
53775;SDS011;44276;49.534;6.378;2023-01-24T02:51:42;9.75;;;5.80;;
53775;SDS011;44276;49.534;6.378;2023-01-24T02:54:27;5.88;;;4.13;;
53775;SDS011;44276;49.534;6.378;2023-01-24T02:56:57;9.00;;;4.78;;
53775;SDS011;44276;49.534;6.378;2023-01-24T02:59:42;6.50;;;4.10;;
53775;SDS011;44276;49.534;6.378;2023-01-24T03:02:11;8.23;;;4.82;;
53775;SDS011;44276;49.534;6.378;2023-01-24T03:04:39;7.38;;;5.30;;
53775;SDS011;44276;49.534;6.378;2023-01-24T03:07:07;8.95;;;5.15;;
53775;SDS011;44276;49.534;6.378;2023-01-24T03:09:35;13.88;;;6.32;;
53775;SDS011;44276;49.534;6.378;2023-01-24T03:12:06;10.50;;;5.80;;
53775;SDS011;44276;49.534;6.378;2023-01-24T03:17:37;10.88;;;5.10;;
53775;SDS011;44276;49.534;6.378;2023-01-24T03:20:23;8.75;;;3.80;;
53775;SDS011;44276;49.534;6.378;2023-01-24T03:23:09;8.93;;;4.78;;
53775;SDS011;44276;49.534;6.378;2023-01-24T03:25:55;11.20;;;6.57;;
53775;SDS011;44276;49.534;6.378;2023-01-24T03:28:44;8.68;;;4.75;;
53775;SDS011;44276;49.534;6.378;2023-01-24T03:31:30;8.85;;;5.00;;
53775;SDS011;44276;49.534;6.378;2023-01-24T03:34:15;9.82;;;6.03;;
53775;SDS011;44276;49.534;6.378;2023-01-24T03:37:00;9.50;;;4.47;;
53775;SDS011;44276;49.534;6.378;2023-01-24T03:39:29;8.13;;;4.22;;
53775;SDS011;44276;49.534;6.378;2023-01-24T03:42:15;7.13;;;4.47;;
53775;SDS011;44276;49.534;6.378;2023-01-24T03:44:44;7.18;;;4.72;;
53775;SDS011;44276;49.534;6.378;2023-01-24T03:47:12;10.77;;;5.97;;
53775;SDS011;44276;49.534;6.378;2023-01-24T03:49:40;8.48;;;4.88;;
53775;SDS011;44276;49.534;6.378;2023-01-24T03:52:26;9.52;;;4.70;;
53775;SDS011;44276;49.534;6.378;2023-01-24T03:54:55;7.43;;;4.35;;
53775;SDS011;44276;49.534;6.378;2023-01-24T03:57:24;16.20;;;9.05;;
53775;SDS011;44276;49.534;6.378;2023-01-24T03:59:55;10.45;;;4.55;;
53775;SDS011;44276;49.534;6.378;2023-01-24T04:02:23;9.70;;;5.60;;
53775;SDS011;44276;49.534;6.378;2023-01-24T04:04:52;11.05;;;5.55;;
53775;SDS011;44276;49.534;6.378;2023-01-24T04:07:37;12.05;;;5.88;;
53775;SDS011;44276;49.534;6.378;2023-01-24T04:10:05;10.57;;;5.88;;
53775;SDS011;44276;49.534;6.378;2023-01-24T04:12:36;9.25;;;5.20;;
53775;SDS011;44276;49.534;6.378;2023-01-24T04:15:06;7.80;;;4.80;;
53775;SDS011;44276;49.534;6.378;2023-01-24T04:17:35;7.55;;;5.18;;
53775;SDS011;44276;49.534;6.378;2023-01-24T04:20:04;10.43;;;5.68;;
53775;SDS011;44276;49.534;6.378;2023-01-24T04:22:33;13.52;;;5.90;;
53775;SDS011;44276;49.534;6.378;2023-01-24T04:25:01;11.38;;;5.20;;
53775;SDS011;44276;49.534;6.378;2023-01-24T04:27:29;11.98;;;5.57;;
53775;SDS011;44276;49.534;6.378;2023-01-24T04:29:58;12.05;;;5.68;;
53775;SDS011;44276;49.534;6.378;2023-01-24T04:32:27;9.88;;;6.32;;
53775;SDS011;44276;49.534;6.378;2023-01-24T04:34:56;8.80;;;4.68;;
53775;SDS011;44276;49.534;6.378;2023-01-24T04:37:25;27.42;;;9.40;;
53775;SDS011;44276;49.534;6.378;2023-01-24T04:39:54;29.48;;;10.57;;
53775;SDS011;44276;49.534;6.378;2023-01-24T04:42:22;9.20;;;4.85;;
53775;SDS011;44276;49.534;6.378;2023-01-24T04:44:50;20.92;;;8.35;;
53775;SDS011;44276;49.534;6.378;2023-01-24T04:47:18;12.23;;;6.05;;
53775;SDS011;44276;49.534;6.378;2023-01-24T04:49:48;7.60;;;4.60;;
53775;SDS011;44276;49.534;6.378;2023-01-24T04:52:16;16.75;;;8.40;;
53775;SDS011;44276;49.534;6.378;2023-01-24T04:54:44;15.85;;;8.00;;
53775;SDS011;44276;49.534;6.378;2023-01-24T04:57:13;9.20;;;5.55;;
53775;SDS011;44276;49.534;6.378;2023-01-24T04:59:41;11.10;;;5.30;;
53775;SDS011;44276;49.534;6.378;2023-01-24T05:02:09;8.10;;;4.10;;
53775;SDS011;44276;49.534;6.378;2023-01-24T05:04:37;9.27;;;5.43;;
53775;SDS011;44276;49.534;6.378;2023-01-24T05:07:07;8.25;;;4.65;;
53775;SDS011;44276;49.534;6.378;2023-01-24T05:09:35;8.00;;;5.10;;
53775;SDS011;44276;49.534;6.378;2023-01-24T05:12:03;10.00;;;4.30;;
53775;SDS011;44276;49.534;6.378;2023-01-24T05:14:32;9.32;;;5.32;;
53775;SDS011;44276;49.534;6.378;2023-01-24T05:17:00;8.55;;;4.65;;
53775;SDS011;44276;49.534;6.378;2023-01-24T05:19:29;10.57;;;5.40;;
53775;SDS011;44276;49.534;6.378;2023-01-24T05:21:57;10.82;;;5.32;;
53775;SDS011;44276;49.534;6.378;2023-01-24T05:24:26;8.50;;;5.30;;
53775;SDS011;44276;49.534;6.378;2023-01-24T05:26:54;7.95;;;4.75;;
53775;SDS011;44276;49.534;6.378;2023-01-24T05:29:22;9.20;;;6.25;;
53775;SDS011;44276;49.534;6.378;2023-01-24T05:31:51;8.93;;;5.35;;
53775;SDS011;44276;49.534;6.378;2023-01-24T05:34:19;10.20;;;5.38;;
53775;SDS011;44276;49.534;6.378;2023-01-24T05:36:47;7.78;;;5.43;;
53775;SDS011;44276;49.534;6.378;2023-01-24T05:39:15;8.73;;;4.38;;
53775;SDS011;44276;49.534;6.378;2023-01-24T05:41:45;6.63;;;4.43;;
53775;SDS011;44276;49.534;6.378;2023-01-24T05:44:13;9.25;;;5.00;;
53775;SDS011;44276;49.534;6.378;2023-01-24T05:46:41;8.15;;;5.03;;
53775;SDS011;44276;49.534;6.378;2023-01-24T05:49:10;9.65;;;5.63;;
53775;SDS011;44276;49.534;6.378;2023-01-24T05:51:38;10.23;;;5.28;;
53775;SDS011;44276;49.534;6.378;2023-01-24T05:54:06;8.43;;;5.40;;
53775;SDS011;44276;49.534;6.378;2023-01-24T05:56:34;10.63;;;4.95;;
53775;SDS011;44276;49.534;6.378;2023-01-24T05:59:04;9.05;;;5.25;;
53775;SDS011;44276;49.534;6.378;2023-01-24T06:01:32;10.60;;;5.78;;
53775;SDS011;44276;49.534;6.378;2023-01-24T06:04:00;11.57;;;6.55;;
53775;SDS011;44276;49.534;6.378;2023-01-24T06:06:30;10.05;;;6.07;;
53775;SDS011;44276;49.534;6.378;2023-01-24T06:08:59;13.27;;;6.78;;
53775;SDS011;44276;49.534;6.378;2023-01-24T06:11:27;10.95;;;7.32;;
53775;SDS011;44276;49.534;6.378;2023-01-24T06:13:55;11.90;;;6.60;;
53775;SDS011;44276;49.534;6.378;2023-01-24T06:16:25;12.32;;;5.30;;
53775;SDS011;44276;49.534;6.378;2023-01-24T06:18:55;9.13;;;5.25;;
53775;SDS011;44276;49.534;6.378;2023-01-24T06:21:28;8.02;;;5.03;;
53775;SDS011;44276;49.534;6.378;2023-01-24T06:24:14;8.73;;;5.20;;
53775;SDS011;44276;49.534;6.378;2023-01-24T06:26:46;9.52;;;5.97;;
53775;SDS011;44276;49.534;6.378;2023-01-24T06:29:16;9.48;;;6.05;;
53775;SDS011;44276;49.534;6.378;2023-01-24T06:31:50;12.07;;;6.65;;
53775;SDS011;44276;49.534;6.378;2023-01-24T06:34:34;10.75;;;5.95;;
53775;SDS011;44276;49.534;6.378;2023-01-24T06:37:28;11.70;;;6.65;;
53775;SDS011;44276;49.534;6.378;2023-01-24T06:40:10;11.40;;;6.03;;
53775;SDS011;44276;49.534;6.378;2023-01-24T06:42:41;11.40;;;5.75;;
53775;SDS011;44276;49.534;6.378;2023-01-24T06:45:11;10.27;;;5.70;;
53775;SDS011;44276;49.534;6.378;2023-01-24T06:47:41;10.90;;;6.03;;
53775;SDS011;44276;49.534;6.378;2023-01-24T06:50:12;8.88;;;5.60;;
53775;SDS011;44276;49.534;6.378;2023-01-24T06:52:45;10.18;;;5.38;;
53775;SDS011;44276;49.534;6.378;2023-01-24T06:55:13;11.05;;;5.78;;
53775;SDS011;44276;49.534;6.378;2023-01-24T06:57:42;11.20;;;5.65;;
53775;SDS011;44276;49.534;6.378;2023-01-24T07:00:13;10.93;;;5.45;;
53775;SDS011;44276;49.534;6.378;2023-01-24T07:02:44;11.52;;;5.60;;
53775;SDS011;44276;49.534;6.378;2023-01-24T07:05:12;11.35;;;6.63;;
53775;SDS011;44276;49.534;6.378;2023-01-24T07:07:40;12.70;;;6.85;;
53775;SDS011;44276;49.534;6.378;2023-01-24T07:10:09;12.75;;;6.93;;
53775;SDS011;44276;49.534;6.378;2023-01-24T07:12:37;11.82;;;5.93;;
53775;SDS011;44276;49.534;6.378;2023-01-24T07:15:09;14.57;;;6.82;;
53775;SDS011;44276;49.534;6.378;2023-01-24T07:17:38;9.30;;;5.55;;
53775;SDS011;44276;49.534;6.378;2023-01-24T07:20:09;11.65;;;5.25;;
53775;SDS011;44276;49.534;6.378;2023-01-24T07:22:39;12.63;;;6.43;;
53775;SDS011;44276;49.534;6.378;2023-01-24T07:25:11;11.52;;;7.03;;
53775;SDS011;44276;49.534;6.378;2023-01-24T07:27:41;15.82;;;6.50;;
53775;SDS011;44276;49.534;6.378;2023-01-24T07:30:11;10.23;;;6.47;;
53775;SDS011;44276;49.534;6.378;2023-01-24T07:32:40;11.38;;;6.05;;
53775;SDS011;44276;49.534;6.378;2023-01-24T07:35:10;13.00;;;6.25;;
53775;SDS011;44276;49.534;6.378;2023-01-24T07:37:38;13.20;;;6.80;;
53775;SDS011;44276;49.534;6.378;2023-01-24T07:40:07;17.98;;;6.15;;
53775;SDS011;44276;49.534;6.378;2023-01-24T07:42:37;9.75;;;5.88;;
53775;SDS011;44276;49.534;6.378;2023-01-24T07:45:05;11.10;;;5.95;;
53775;SDS011;44276;49.534;6.378;2023-01-24T07:47:34;10.38;;;5.72;;
53775;SDS011;44276;49.534;6.378;2023-01-24T07:50:02;13.45;;;7.47;;
53775;SDS011;44276;49.534;6.378;2023-01-24T07:52:33;13.07;;;6.47;;
53775;SDS011;44276;49.534;6.378;2023-01-24T07:55:01;9.13;;;6.25;;
53775;SDS011;44276;49.534;6.378;2023-01-24T07:57:30;12.40;;;5.95;;
53775;SDS011;44276;49.534;6.378;2023-01-24T07:59:58;11.20;;;6.32;;
53775;SDS011;44276;49.534;6.378;2023-01-24T08:02:26;10.90;;;6.25;;
53775;SDS011;44276;49.534;6.378;2023-01-24T08:04:55;14.88;;;7.03;;
53775;SDS011;44276;49.534;6.378;2023-01-24T08:07:23;11.60;;;6.18;;
53775;SDS011;44276;49.534;6.378;2023-01-24T08:09:52;13.57;;;6.15;;
53775;SDS011;44276;49.534;6.378;2023-01-24T08:12:20;13.73;;;5.85;;
53775;SDS011;44276;49.534;6.378;2023-01-24T08:14:49;9.88;;;5.93;;
53775;SDS011;44276;49.534;6.378;2023-01-24T08:17:17;11.60;;;5.35;;
53775;SDS011;44276;49.534;6.378;2023-01-24T08:19:45;12.98;;;6.95;;
53775;SDS011;44276;49.534;6.378;2023-01-24T08:22:23;10.23;;;6.13;;
53775;SDS011;44276;49.534;6.378;2023-01-24T08:24:53;13.35;;;6.88;;
53775;SDS011;44276;49.534;6.378;2023-01-24T08:27:21;12.63;;;5.60;;
53775;SDS011;44276;49.534;6.378;2023-01-24T08:29:49;14.70;;;5.82;;
53775;SDS011;44276;49.534;6.378;2023-01-24T08:32:17;10.65;;;6.75;;
53775;SDS011;44276;49.534;6.378;2023-01-24T08:34:46;10.98;;;6.07;;
53775;SDS011;44276;49.534;6.378;2023-01-24T08:37:14;11.27;;;5.80;;
53775;SDS011;44276;49.534;6.378;2023-01-24T08:39:42;12.80;;;6.43;;
53775;SDS011;44276;49.534;6.378;2023-01-24T08:42:12;15.98;;;8.43;;
53775;SDS011;44276;49.534;6.378;2023-01-24T08:44:40;12.05;;;6.07;;
53775;SDS011;44276;49.534;6.378;2023-01-24T08:47:08;11.95;;;7.40;;
53775;SDS011;44276;49.534;6.378;2023-01-24T08:49:37;10.23;;;5.63;;
53775;SDS011;44276;49.534;6.378;2023-01-24T08:52:05;11.07;;;5.80;;
53775;SDS011;44276;49.534;6.378;2023-01-24T08:54:33;12.07;;;5.78;;
53775;SDS011;44276;49.534;6.378;2023-01-24T08:57:03;11.77;;;5.70;;
53775;SDS011;44276;49.534;6.378;2023-01-24T08:59:34;11.18;;;7.38;;
53775;SDS011;44276;49.534;6.378;2023-01-24T09:02:03;10.80;;;6.03;;
53775;SDS011;44276;49.534;6.378;2023-01-24T09:04:32;10.65;;;6.65;;
53775;SDS011;44276;49.534;6.378;2023-01-24T09:07:00;9.05;;;5.25;;
53775;SDS011;44276;49.534;6.378;2023-01-24T09:09:28;10.82;;;5.93;;
53775;SDS011;44276;49.534;6.378;2023-01-24T09:11:56;12.68;;;7.05;;
53775;SDS011;44276;49.534;6.378;2023-01-24T09:14:24;11.68;;;5.43;;
53775;SDS011;44276;49.534;6.378;2023-01-24T09:16:53;13.13;;;6.00;;
53775;SDS011;44276;49.534;6.378;2023-01-24T09:19:22;10.38;;;5.97;;
53775;SDS011;44276;49.534;6.378;2023-01-24T09:21:53;11.63;;;6.95;;
53775;SDS011;44276;49.534;6.378;2023-01-24T09:24:23;12.45;;;7.18;;
53775;SDS011;44276;49.534;6.378;2023-01-24T09:26:51;15.02;;;6.90;;
53775;SDS011;44276;49.534;6.378;2023-01-24T09:29:19;14.75;;;6.88;;
53775;SDS011;44276;49.534;6.378;2023-01-24T09:31:47;11.38;;;5.85;;
53775;SDS011;44276;49.534;6.378;2023-01-24T09:34:17;11.63;;;6.82;;
53775;SDS011;44276;49.534;6.378;2023-01-24T09:36:46;12.18;;;7.45;;
53775;SDS011;44276;49.534;6.378;2023-01-24T09:39:15;14.05;;;7.35;;
53775;SDS011;44276;49.534;6.378;2023-01-24T09:41:46;16.23;;;7.03;;
53775;SDS011;44276;49.534;6.378;2023-01-24T09:44:37;15.35;;;9.57;;
53775;SDS011;44276;49.534;6.378;2023-01-24T09:47:19;12.15;;;6.35;;
53775;SDS011;44276;49.534;6.378;2023-01-24T09:49:54;13.77;;;7.70;;
53775;SDS011;44276;49.534;6.378;2023-01-24T09:52:27;17.98;;;8.00;;
53775;SDS011;44276;49.534;6.378;2023-01-24T09:55:05;15.02;;;8.23;;
53775;SDS011;44276;49.534;6.378;2023-01-24T09:57:49;14.45;;;7.85;;
53775;SDS011;44276;49.534;6.378;2023-01-24T10:00:24;17.15;;;6.95;;
53775;SDS011;44276;49.534;6.378;2023-01-24T10:02:56;12.70;;;7.28;;
53775;SDS011;44276;49.534;6.378;2023-01-24T10:05:31;11.98;;;6.28;;
53775;SDS011;44276;49.534;6.378;2023-01-24T10:08:16;16.60;;;6.82;;
53775;SDS011;44276;49.534;6.378;2023-01-24T10:10:57;18.63;;;9.45;;
53775;SDS011;44276;49.534;6.378;2023-01-24T10:17:06;16.70;;;6.45;;
53775;SDS011;44276;49.534;6.378;2023-01-24T10:20:13;16.00;;;8.30;;
53775;SDS011;44276;49.534;6.378;2023-01-24T10:23:10;13.13;;;6.70;;
53775;SDS011;44276;49.534;6.378;2023-01-24T10:25:50;13.10;;;7.55;;
53775;SDS011;44276;49.534;6.378;2023-01-24T10:28:26;12.25;;;6.45;;
53775;SDS011;44276;49.534;6.378;2023-01-24T10:31:04;12.68;;;7.25;;
53775;SDS011;44276;49.534;6.378;2023-01-24T10:33:37;16.80;;;8.57;;
53775;SDS011;44276;49.534;6.378;2023-01-24T10:36:16;14.38;;;8.73;;
53775;SDS011;44276;49.534;6.378;2023-01-24T10:38:53;13.10;;;5.80;;
53775;SDS011;44276;49.534;6.378;2023-01-24T10:41:22;13.20;;;5.95;;
53775;SDS011;44276;49.534;6.378;2023-01-24T10:43:53;11.98;;;6.78;;
53775;SDS011;44276;49.534;6.378;2023-01-24T10:46:31;13.85;;;7.13;;
53775;SDS011;44276;49.534;6.378;2023-01-24T10:49:19;15.48;;;7.03;;
53775;SDS011;44276;49.534;6.378;2023-01-24T10:54:43;13.82;;;6.35;;
53775;SDS011;44276;49.534;6.378;2023-01-24T10:57:17;15.45;;;7.35;;
53775;SDS011;44276;49.534;6.378;2023-01-24T11:00:03;13.15;;;6.80;;
53775;SDS011;44276;49.534;6.378;2023-01-24T11:02:48;12.35;;;6.55;;
53775;SDS011;44276;49.534;6.378;2023-01-24T11:05:19;16.55;;;7.55;;
53775;SDS011;44276;49.534;6.378;2023-01-24T11:07:52;15.63;;;7.32;;
53775;SDS011;44276;49.534;6.378;2023-01-24T11:10:27;16.35;;;7.53;;
53775;SDS011;44276;49.534;6.378;2023-01-24T11:13:17;16.60;;;8.35;;
53775;SDS011;44276;49.534;6.378;2023-01-24T11:16:00;11.80;;;6.70;;
53775;SDS011;44276;49.534;6.378;2023-01-24T11:18:33;17.67;;;8.73;;
53775;SDS011;44276;49.534;6.378;2023-01-24T11:21:04;15.77;;;7.50;;
53775;SDS011;44276;49.534;6.378;2023-01-24T11:23:37;14.38;;;7.47;;
53775;SDS011;44276;49.534;6.378;2023-01-24T11:26:18;17.88;;;7.43;;
53775;SDS011;44276;49.534;6.378;2023-01-24T11:28:59;12.25;;;7.13;;
53775;SDS011;44276;49.534;6.378;2023-01-24T11:31:33;16.55;;;8.07;;
53775;SDS011;44276;49.534;6.378;2023-01-24T11:34:10;14.75;;;7.70;;
53775;SDS011;44276;49.534;6.378;2023-01-24T11:37:14;18.38;;;8.32;;
53775;SDS011;44276;49.534;6.378;2023-01-24T11:40:24;16.23;;;8.00;;
53775;SDS011;44276;49.534;6.378;2023-01-24T11:43:08;17.52;;;7.53;;
53775;SDS011;44276;49.534;6.378;2023-01-24T11:45:54;11.65;;;7.18;;
53775;SDS011;44276;49.534;6.378;2023-01-24T11:48:47;17.17;;;8.90;;
53775;SDS011;44276;49.534;6.378;2023-01-24T11:51:24;16.52;;;7.45;;
53775;SDS011;44276;49.534;6.378;2023-01-24T11:54:21;14.02;;;8.60;;
53775;SDS011;44276;49.534;6.378;2023-01-24T11:57:15;17.17;;;8.18;;
53775;SDS011;44276;49.534;6.378;2023-01-24T12:00:02;15.20;;;7.43;;
53775;SDS011;44276;49.534;6.378;2023-01-24T12:02:59;18.08;;;9.65;;
53775;SDS011;44276;49.534;6.378;2023-01-24T12:05:53;21.08;;;9.10;;
53775;SDS011;44276;49.534;6.378;2023-01-24T12:08:42;13.98;;;7.32;;
53775;SDS011;44276;49.534;6.378;2023-01-24T12:11:28;22.45;;;7.18;;
53775;SDS011;44276;49.534;6.378;2023-01-24T12:14:20;14.65;;;7.68;;
53775;SDS011;44276;49.534;6.378;2023-01-24T12:17:14;14.15;;;7.85;;
53775;SDS011;44276;49.534;6.378;2023-01-24T12:20:23;17.90;;;8.82;;
53775;SDS011;44276;49.534;6.378;2023-01-24T12:23:15;15.23;;;7.22;;
53775;SDS011;44276;49.534;6.378;2023-01-24T12:25:50;15.23;;;7.90;;
53775;SDS011;44276;49.534;6.378;2023-01-24T12:28:25;18.10;;;9.18;;
53775;SDS011;44276;49.534;6.378;2023-01-24T12:31:03;17.00;;;7.85;;
53775;SDS011;44276;49.534;6.378;2023-01-24T12:33:35;15.63;;;7.38;;
53775;SDS011;44276;49.534;6.378;2023-01-24T12:36:20;20.13;;;9.15;;
53775;SDS011;44276;49.534;6.378;2023-01-24T12:39:02;19.23;;;8.77;;
53775;SDS011;44276;49.534;6.378;2023-01-24T12:41:49;17.38;;;9.07;;
53775;SDS011;44276;49.534;6.378;2023-01-24T12:44:29;19.40;;;8.48;;
53775;SDS011;44276;49.534;6.378;2023-01-24T12:47:13;15.13;;;8.45;;
53775;SDS011;44276;49.534;6.378;2023-01-24T12:49:55;20.25;;;8.07;;
53775;SDS011;44276;49.534;6.378;2023-01-24T12:52:46;17.92;;;8.82;;
53775;SDS011;44276;49.534;6.378;2023-01-24T12:55:27;18.85;;;9.15;;
53775;SDS011;44276;49.534;6.378;2023-01-24T12:58:02;18.38;;;9.43;;
53775;SDS011;44276;49.534;6.378;2023-01-24T13:00:41;21.67;;;9.85;;
53775;SDS011;44276;49.534;6.378;2023-01-24T13:03:29;19.00;;;9.02;;
53775;SDS011;44276;49.534;6.378;2023-01-24T13:06:18;15.98;;;9.05;;
53775;SDS011;44276;49.534;6.378;2023-01-24T13:09:02;17.60;;;8.40;;
53775;SDS011;44276;49.534;6.378;2023-01-24T13:11:45;16.65;;;8.88;;
53775;SDS011;44276;49.534;6.378;2023-01-24T13:14:18;18.08;;;9.05;;
53775;SDS011;44276;49.534;6.378;2023-01-24T13:16:55;17.67;;;9.32;;
53775;SDS011;44276;49.534;6.378;2023-01-24T13:22:56;14.57;;;7.53;;
53775;SDS011;44276;49.534;6.378;2023-01-24T13:25:58;17.67;;;8.63;;
53775;SDS011;44276;49.534;6.378;2023-01-24T13:29:13;16.40;;;9.80;;
53775;SDS011;44276;49.534;6.378;2023-01-24T13:31:58;16.85;;;8.10;;
53775;SDS011;44276;49.534;6.378;2023-01-24T13:34:37;22.52;;;9.68;;
53775;SDS011;44276;49.534;6.378;2023-01-24T13:37:17;24.10;;;9.57;;
53775;SDS011;44276;49.534;6.378;2023-01-24T13:39:58;17.98;;;8.20;;
53775;SDS011;44276;49.534;6.378;2023-01-24T13:42:33;17.55;;;8.98;;
53775;SDS011;44276;49.534;6.378;2023-01-24T13:54:19;18.13;;;9.98;;
53775;SDS011;44276;49.534;6.378;2023-01-24T13:57:10;16.25;;;8.50;;
53775;SDS011;44276;49.534;6.378;2023-01-24T14:02:59;15.90;;;8.32;;
53775;SDS011;44276;49.534;6.378;2023-01-24T14:05:43;18.00;;;8.35;;
53775;SDS011;44276;49.534;6.378;2023-01-24T14:08:30;19.73;;;8.98;;
53775;SDS011;44276;49.534;6.378;2023-01-24T14:14:32;15.40;;;7.90;;
53775;SDS011;44276;49.534;6.378;2023-01-24T14:17:04;16.98;;;8.48;;
53775;SDS011;44276;49.534;6.378;2023-01-24T14:20:16;20.25;;;8.32;;
53775;SDS011;44276;49.534;6.378;2023-01-24T14:22:52;18.67;;;8.38;;
53775;SDS011;44276;49.534;6.378;2023-01-24T14:25:38;19.48;;;7.35;;
53775;SDS011;44276;49.534;6.378;2023-01-24T14:28:23;16.95;;;9.02;;
53775;SDS011;44276;49.534;6.378;2023-01-24T14:30:59;16.98;;;9.57;;
53775;SDS011;44276;49.534;6.378;2023-01-24T14:33:36;19.88;;;9.50;;
53775;SDS011;44276;49.534;6.378;2023-01-24T14:36:19;18.35;;;8.55;;
53775;SDS011;44276;49.534;6.378;2023-01-24T14:39:12;17.98;;;8.57;;
53775;SDS011;44276;49.534;6.378;2023-01-24T14:41:47;18.30;;;9.10;;
53775;SDS011;44276;49.534;6.378;2023-01-24T14:44:20;16.55;;;8.05;;
53775;SDS011;44276;49.534;6.378;2023-01-24T14:46:52;19.25;;;8.65;;
53775;SDS011;44276;49.534;6.378;2023-01-24T14:49:26;20.08;;;10.38;;
53775;SDS011;44276;49.534;6.378;2023-01-24T14:51:59;16.02;;;10.18;;
53775;SDS011;44276;49.534;6.378;2023-01-24T14:54:43;18.23;;;10.00;;
53775;SDS011;44276;49.534;6.378;2023-01-24T14:57:22;18.05;;;9.05;;
53775;SDS011;44276;49.534;6.378;2023-01-24T15:00:02;20.25;;;9.95;;
53775;SDS011;44276;49.534;6.378;2023-01-24T15:02:50;17.13;;;9.63;;
53775;SDS011;44276;49.534;6.378;2023-01-24T15:05:22;19.10;;;9.90;;
53775;SDS011;44276;49.534;6.378;2023-01-24T15:07:56;21.48;;;11.60;;
53775;SDS011;44276;49.534;6.378;2023-01-24T15:10:27;25.02;;;11.30;;
53775;SDS011;44276;49.534;6.378;2023-01-24T15:13:00;19.70;;;8.70;;
53775;SDS011;44276;49.534;6.378;2023-01-24T15:15:34;20.30;;;10.25;;
53775;SDS011;44276;49.534;6.378;2023-01-24T15:18:04;16.10;;;8.82;;
53775;SDS011;44276;49.534;6.378;2023-01-24T15:20:47;19.58;;;9.70;;
53775;SDS011;44276;49.534;6.378;2023-01-24T15:23:17;21.90;;;9.10;;
53775;SDS011;44276;49.534;6.378;2023-01-24T15:25:50;23.88;;;10.95;;
53775;SDS011;44276;49.534;6.378;2023-01-24T15:28:20;17.90;;;9.13;;
53775;SDS011;44276;49.534;6.378;2023-01-24T15:30:57;27.08;;;13.00;;
53775;SDS011;44276;49.534;6.378;2023-01-24T15:33:26;20.38;;;9.48;;
53775;SDS011;44276;49.534;6.378;2023-01-24T15:36:15;35.97;;;16.90;;
53775;SDS011;44276;49.534;6.378;2023-01-24T15:38:52;22.98;;;10.88;;
53775;SDS011;44276;49.534;6.378;2023-01-24T15:41:23;23.50;;;12.35;;
53775;SDS011;44276;49.534;6.378;2023-01-24T15:44:13;23.15;;;11.20;;
53775;SDS011;44276;49.534;6.378;2023-01-24T15:46:45;22.88;;;10.80;;
53775;SDS011;44276;49.534;6.378;2023-01-24T15:49:39;23.63;;;11.60;;
53775;SDS011;44276;49.534;6.378;2023-01-24T15:52:25;26.00;;;10.38;;
53775;SDS011;44276;49.534;6.378;2023-01-24T15:54:54;22.48;;;9.70;;